Time;durP1;ratioP1;P1;durP2;ratioP2;P2;SDS_P1;SDS_P2;PMS_P1;PMS_P2;Temp;Humidity;BMP_temperature;BMP_pressure;BME280_temperature;BME280_humidity;BME280_pressure;Samples;Min_cycle;Max_cycle;Signal;HPM_P1;HPM_P2
2022/03/21 00:00:36;;;;;;;8.33;5.53;;;17.40;49.80;18.40;102127.00;;;;4989596;28;20176;-47
2022/03/21 00:03:02;;;;;;;7.47;5.73;;;17.40;49.80;18.40;102138.00;;;;4990515;28;20184;-47
2022/03/21 00:05:30;;;;;;;7.97;5.83;;;17.40;49.80;18.10;102116.00;;;;4990902;28;20582;-46
2022/03/21 00:07:56;;;;;;;7.50;5.30;;;17.30;49.60;18.30;102134.00;;;;4989254;28;20196;-46
2022/03/21 00:10:22;;;;;;;9.20;5.70;;;17.30;49.70;18.30;102135.00;;;;4990407;28;20254;-47
2022/03/21 00:12:49;;;;;;;7.63;5.53;;;17.30;49.60;18.30;102135.00;;;;4990719;28;20263;-45
2022/03/21 00:15:15;;;;;;;9.53;5.50;;;17.20;49.60;18.30;102137.00;;;;4991035;28;20172;-47
2022/03/21 00:17:41;;;;;;;6.30;5.70;;;17.20;49.60;18.30;102134.00;;;;4990622;28;20199;-45
2022/03/21 00:20:11;;;;;;;7.77;5.80;;;17.20;49.60;18.30;102120.00;;;;4989232;28;20179;-47
2022/03/21 00:22:37;;;;;;;5.83;5.23;;;17.20;49.60;18.30;102126.00;;;;4989122;28;20919;-45
2022/03/21 00:25:05;;;;;;;7.30;5.40;;;17.20;49.60;18.20;102050.00;;;;4990979;28;20766;-46
2022/03/21 00:27:35;;;;;;;8.27;5.40;;;17.10;49.50;18.20;102120.00;;;;4990144;28;20204;-47
2022/03/21 00:30:00;;;;;;;5.87;5.23;;;17.10;49.60;18.20;102131.00;;;;4990148;28;20200;-45
2022/03/21 00:32:26;;;;;;;5.90;5.33;;;17.10;49.50;18.20;102122.00;;;;4990414;28;20215;-47
2022/03/21 00:34:52;;;;;;;6.10;5.43;;;17.10;49.60;18.20;102128.00;;;;4990070;28;20227;-46
2022/03/21 00:37:18;;;;;;;7.17;5.50;;;17.10;49.50;18.20;102137.00;;;;4990124;28;20192;-47
2022/03/21 00:39:43;;;;;;;8.57;5.40;;;17.10;49.50;18.20;102117.00;;;;4990291;28;20184;-47
2022/03/21 00:42:10;;;;;;;6.07;5.37;;;17.00;49.50;18.00;102103.00;;;;4988962;28;20206;-47
2022/03/21 00:44:37;;;;;;;5.50;5.00;;;17.00;49.50;18.10;102101.00;;;;4990304;28;20573;-45
2022/03/21 00:47:03;;;;;;;5.77;5.17;;;17.00;49.60;18.10;102099.00;;;;4989609;28;20947;-46
2022/03/21 00:49:29;;;;;;;5.63;4.97;;;17.00;49.60;18.10;102114.00;;;;4988770;28;20176;-46
2022/03/21 00:51:55;;;;;;;5.60;4.97;;;17.00;49.50;18.10;102116.00;;;;4990083;28;20719;-47
2022/03/21 00:54:20;;;;;;;6.00;5.07;;;17.00;49.60;18.10;102107.00;;;;4989780;28;20173;-46
2022/03/21 00:56:46;;;;;;;5.70;5.20;;;17.00;49.60;18.10;102122.00;;;;4989605;28;20699;-47
2022/03/21 00:59:12;;;;;;;6.60;5.53;;;16.90;49.60;18.10;102112.00;;;;4990196;28;20175;-45
2022/03/21 01:01:38;;;;;;;5.43;4.90;;;17.00;49.60;18.00;102122.00;;;;4989605;28;20184;-46
2022/03/21 01:04:04;;;;;;;5.67;5.17;;;17.00;49.60;18.00;102125.00;;;;4989885;28;20188;-47
2022/03/21 01:06:29;;;;;;;5.50;5.00;;;16.90;49.50;18.00;102131.00;;;;4988100;28;20212;-47
2022/03/21 01:08:55;;;;;;;5.37;4.87;;;16.90;49.60;18.00;102134.00;;;;4989095;28;20757;-46
2022/03/21 01:11:22;;;;;;;5.47;4.77;;;16.90;49.60;18.00;102134.00;;;;4992326;28;20283;-45
2022/03/21 01:13:49;;;;;;;5.47;4.97;;;16.90;49.60;18.00;102133.00;;;;4991004;28;20192;-45
2022/03/21 01:16:15;;;;;;;5.53;5.03;;;16.90;49.70;17.90;102128.00;;;;4989616;28;20252;-44
2022/03/21 01:18:44;;;;;;;5.90;5.00;;;16.90;49.70;17.90;102136.00;;;;4989280;28;20172;-46
2022/03/21 01:21:13;;;;;;;5.10;4.70;;;16.80;49.60;17.90;102135.00;;;;4993848;28;20242;-45
2022/03/21 01:23:39;;;;;;;8.03;5.07;;;16.80;50.40;17.90;102128.00;;;;4990650;28;20168;-46
2022/03/21 01:26:05;;;;;;;5.53;5.03;;;16.80;49.70;17.80;102140.00;;;;4988915;28;20687;-46
2022/03/21 01:28:30;;;;;;;5.57;4.73;;;16.80;49.60;17.80;102137.00;;;;4989241;28;20200;-47
2022/03/21 01:30:56;;;;;;;5.40;4.87;;;16.80;49.70;17.80;102127.00;;;;4988909;28;20204;-47
2022/03/21 01:33:22;;;;;;;5.17;4.67;;;16.80;49.60;17.80;102141.00;;;;4989343;28;20641;-47
2022/03/21 01:35:48;;;;;;;5.57;5.00;;;16.80;49.70;17.80;102129.00;;;;4988947;28;20172;-46
2022/03/21 01:38:13;;;;;;;5.50;4.70;;;16.80;49.80;17.80;102131.00;;;;4988880;28;20223;-45
2022/03/21 01:40:39;;;;;;;5.13;4.63;;;16.80;49.80;17.80;102144.00;;;;4987535;28;20191;-46
2022/03/21 01:43:11;;;;;;;5.20;4.70;;;16.80;49.80;17.70;102150.00;;;;4988896;28;20535;-46
2022/03/21 01:45:37;;;;;;;5.20;4.70;;;16.70;49.70;17.70;102149.00;;;;4988880;28;20258;-47
2022/03/21 01:48:02;;;;;;;5.57;4.80;;;16.70;49.80;17.70;102139.00;;;;4988672;28;20725;-46
2022/03/21 01:50:28;;;;;;;5.27;4.77;;;16.70;49.70;17.70;102139.00;;;;4988908;28;20216;-47
2022/03/21 01:55:43;;;;;;;5.60;5.13;;;16.70;49.70;17.70;102133.00;;;;4988761;28;20641;-46
2022/03/21 01:55:44;;;;;;;4.70;4.30;;;16.70;49.70;17.70;102128.00;;;;4987514;28;20164;-47
2022/03/21 01:58:09;;;;;;;4.70;4.30;;;16.70;49.70;17.70;102134.00;;;;4987098;28;20196;-46
2022/03/21 02:00:35;;;;;;;5.10;4.70;;;16.70;49.70;17.70;102110.00;;;;4988217;28;20180;-46
2022/03/21 02:03:01;;;;;;;5.57;5.00;;;16.70;49.70;17.70;102130.00;;;;4988304;28;20272;-46
2022/03/21 02:05:27;;;;;;;5.37;4.40;;;16.70;49.70;17.70;102127.00;;;;4988509;28;20184;-48
2022/03/21 02:07:53;;;;;;;5.30;4.83;;;16.70;49.70;17.70;102127.00;;;;4987488;28;20567;-47
2022/03/21 02:10:19;;;;;;;4.87;4.53;;;16.70;49.70;17.70;102120.00;;;;4988394;28;20192;-47
2022/03/21 02:12:45;;;;;;;4.87;4.33;;;16.70;49.70;17.40;102132.00;;;;4988778;28;20180;-46
2022/03/21 02:15:11;;;;;;;4.87;4.37;;;16.60;49.60;17.70;102130.00;;;;4970615;28;20777;-45
2022/03/21 02:17:36;;;;;;;5.30;4.80;;;16.60;49.60;17.70;102118.00;;;;4986970;28;20196;-46
2022/03/21 02:20:03;;;;;;;5.00;4.60;;;16.60;49.60;17.70;102118.00;;;;4987294;28;20760;-46
2022/03/21 02:22:48;;;;;;;4.87;4.47;;;16.60;49.60;17.70;102122.00;;;;4986898;28;20172;-46
2022/03/21 02:25:34;;;;;;;4.70;4.30;;;16.60;49.60;17.70;102120.00;;;;4988266;28;20161;-45
2022/03/21 02:28:03;;;;;;;4.80;4.40;;;16.60;49.60;17.60;102108.00;;;;4987905;28;20598;-45
2022/03/21 02:30:30;;;;;;;4.93;4.53;;;16.60;49.70;17.60;102112.00;;;;4987889;28;20271;-46
2022/03/21 02:32:56;;;;;;;5.00;4.60;;;16.60;49.90;17.60;102116.00;;;;4987127;28;20160;-46
2022/03/21 02:35:22;;;;;;;4.90;4.50;;;16.50;49.90;17.60;102113.00;;;;4988025;28;20772;-46
2022/03/21 02:37:48;;;;;;;5.10;4.70;;;16.60;50.00;17.60;102116.00;;;;4986852;28;20219;-47
2022/03/21 02:40:14;;;;;;;5.07;4.63;;;16.60;50.00;17.60;102105.00;;;;4986205;28;20641;-47
2022/03/21 02:42:40;;;;;;;5.30;4.80;;;16.50;50.00;17.60;102117.00;;;;4986760;28;20176;-46
2022/03/21 02:45:06;;;;;;;4.90;4.50;;;16.60;50.10;17.60;102114.00;;;;4987807;28;20656;-46
2022/03/21 02:47:31;;;;;;;4.77;4.37;;;16.50;50.00;17.60;102116.00;;;;4987156;28;20246;-46
2022/03/21 02:49:58;;;;;;;5.03;4.57;;;16.50;50.00;17.60;102108.00;;;;4988624;28;20173;-45
2022/03/21 02:52:23;;;;;;;4.83;4.10;;;16.50;50.00;17.60;102111.00;;;;4987428;28;20288;-46
2022/03/21 02:54:49;;;;;;;4.60;4.27;;;16.50;50.20;17.60;102099.00;;;;4988386;28;20199;-47
2022/03/21 02:57:15;;;;;;;4.53;4.13;;;16.50;50.10;17.60;102095.00;;;;4987785;28;20196;-47
2022/03/21 02:59:40;;;;;;;4.80;4.40;;;16.50;50.00;17.60;102104.00;;;;4987898;28;20649;-45
2022/03/21 03:02:08;;;;;;;4.50;4.10;;;16.50;50.00;17.60;102107.00;;;;4986555;28;20192;-47
2022/03/21 03:04:33;;;;;;;5.13;4.63;;;16.50;49.90;17.60;102102.00;;;;4987266;28;20206;-46
2022/03/21 03:06:59;;;;;;;4.93;4.43;;;16.50;49.90;17.60;102098.00;;;;4987254;28;20192;-47
2022/03/21 03:09:25;;;;;;;4.63;4.27;;;16.40;49.70;17.60;102098.00;;;;4986781;28;20219;-46
2022/03/21 03:11:50;;;;;;;5.00;4.60;;;16.50;49.90;17.60;102098.00;;;;4986850;28;20196;-48
2022/03/21 03:14:16;;;;;;;4.67;4.27;;;16.50;49.80;17.50;102105.00;;;;4987711;28;20550;-47
2022/03/21 03:16:42;;;;;;;4.73;4.33;;;16.40;49.60;17.50;102104.00;;;;4987098;28;20722;-46
2022/03/21 03:19:08;;;;;;;4.47;4.13;;;16.40;49.70;17.50;102099.00;;;;4992076;28;20187;-47
2022/03/21 03:21:37;;;;;;;4.70;4.30;;;16.40;49.70;17.50;102102.00;;;;4992291;28;20276;-47
2022/03/21 03:24:04;;;;;;;4.70;4.30;;;16.40;49.70;17.50;102079.00;;;;4990358;28;20183;-47
2022/03/21 03:26:29;;;;;;;4.87;4.33;;;16.40;49.80;17.50;102109.00;;;;4991346;28;20238;-45
2022/03/21 03:28:55;;;;;;;4.23;3.93;;;16.40;49.80;17.50;102075.00;;;;4991287;28;20188;-47
2022/03/21 03:31:21;;;;;;;4.83;4.43;;;16.40;49.80;17.50;102100.00;;;;4989667;28;20196;-45
2022/03/21 03:33:46;;;;;;;4.90;4.50;;;16.40;49.70;17.50;102100.00;;;;4990181;28;20186;-46
2022/03/21 03:36:15;;;;;;;4.73;4.40;;;16.40;49.70;17.50;102116.00;;;;4991132;28;20168;-46
2022/03/21 03:38:44;;;;;;;4.80;4.40;;;16.30;49.70;17.50;102115.00;;;;4991333;28;20559;-46
2022/03/21 03:41:10;;;;;;;4.73;4.33;;;16.30;49.60;17.40;102110.00;;;;4991523;28;20175;-47
2022/03/21 03:43:36;;;;;;;4.50;4.10;;;16.30;49.60;17.40;102107.00;;;;4992105;28;20180;-46
2022/03/21 03:46:02;;;;;;;5.00;4.60;;;16.30;49.60;17.40;102100.00;;;;4993319;28;20721;-48
2022/03/21 03:48:28;;;;;;;4.80;4.40;;;16.30;49.60;17.40;102117.00;;;;4991064;28;20282;-46
2022/03/21 03:50:54;;;;;;;5.10;4.70;;;16.30;49.60;17.40;102120.00;;;;4990832;28;20208;-46
2022/03/21 03:53:20;;;;;;;4.43;4.03;;;16.30;49.60;17.40;102122.00;;;;4990396;28;20234;-47
2022/03/21 03:55:45;;;;;;;5.30;4.80;;;16.30;49.60;17.40;102111.00;;;;4989723;28;20690;-47
2022/03/21 03:58:11;;;;;;;4.53;4.23;;;16.20;49.40;17.40;102131.00;;;;4990760;28;20204;-45
2022/03/21 04:00:37;;;;;;;4.60;4.20;;;16.30;49.50;17.40;102117.00;;;;4990547;28;20191;-45
2022/03/21 04:05:47;;;;;;;4.97;4.57;;;16.20;49.40;17.40;102131.00;;;;4992061;28;20223;-46
2022/03/21 04:08:13;;;;;;;4.43;4.13;;;16.20;49.40;17.40;102129.00;;;;4990893;28;20204;-47
2022/03/21 04:10:38;;;;;;;4.70;4.30;;;16.20;49.60;17.40;102140.00;;;;4989814;28;20291;-44
2022/03/21 04:13:04;;;;;;;4.13;3.80;;;16.20;49.60;17.40;102138.00;;;;4990705;28;20177;-46
2022/03/21 04:15:30;;;;;;;4.50;4.20;;;16.10;49.50;17.40;102140.00;;;;4990687;28;20700;-48
2022/03/21 04:18:02;;;;;;;4.27;3.97;;;16.10;49.60;17.30;102120.00;;;;4990207;28;20200;-46
2022/03/21 04:20:31;;;;;;;4.40;4.00;;;16.20;49.70;17.30;102135.00;;;;4990307;28;20169;-46
2022/03/21 04:23:00;;;;;;;4.50;4.20;;;16.10;49.70;17.30;102128.00;;;;4990570;28;20181;-46
2022/03/21 04:25:26;;;;;;;4.87;4.40;;;16.10;49.70;17.30;102130.00;;;;4989403;28;20211;-45
2022/03/21 04:27:52;;;;;;;6.13;4.30;;;16.10;49.70;17.30;102137.00;;;;4990264;28;20900;-46
2022/03/21 04:30:18;;;;;;;5.27;4.00;;;16.10;49.80;17.00;102133.00;;;;4988900;28;20180;-46
2022/03/21 04:32:44;;;;;;;5.50;4.30;;;16.20;50.80;17.20;102134.00;;;;4990164;28;20219;-46
2022/03/21 04:35:10;;;;;;;8.13;4.57;;;16.10;50.00;17.20;102140.00;;;;4989095;28;20234;-45
2022/03/21 04:37:37;;;;;;;6.73;4.47;;;16.10;50.00;17.20;102138.00;;;;4988652;28;20555;-45
2022/03/21 04:40:04;;;;;;;8.70;4.50;;;16.10;50.20;17.00;102151.00;;;;4990052;28;20606;-47
2022/03/21 04:42:30;;;;;;;7.83;4.60;;;16.10;50.20;17.20;102144.00;;;;4989691;28;20172;-47
2022/03/21 04:44:55;;;;;;;12.53;4.77;;;16.00;50.10;17.20;102136.00;;;;4990104;28;20176;-46
2022/03/21 04:47:21;;;;;;;11.30;4.60;;;16.10;50.10;17.20;102145.00;;;;4989974;28;20219;-46
2022/03/21 04:49:49;;;;;;;7.97;4.70;;;16.00;50.00;17.20;102152.00;;;;4990093;28;20220;-45
2022/03/21 04:52:15;;;;;;;11.33;4.60;;;16.10;50.10;17.20;102150.00;;;;4989913;28;20395;-46
2022/03/21 04:54:40;;;;;;;7.40;4.70;;;16.00;49.90;17.20;102131.00;;;;4990206;28;20694;-47
2022/03/21 04:57:08;;;;;;;8.83;4.60;;;16.10;49.90;17.20;102161.00;;;;4989269;28;20199;-45
2022/03/21 04:59:34;;;;;;;7.33;4.90;;;16.00;49.80;17.20;102161.00;;;;4990113;28;20165;-46
2022/03/21 05:02:00;;;;;;;6.97;5.03;;;16.00;49.80;17.20;102170.00;;;;4986590;28;20683;-45
2022/03/21 05:04:26;;;;;;;6.27;5.00;;;16.10;49.80;17.10;102166.00;;;;4989321;28;20238;-45
2022/03/21 05:06:54;;;;;;;6.10;5.00;;;16.00;49.80;17.10;102175.00;;;;4988936;28;20196;-46
2022/03/21 05:09:20;;;;;;;6.97;5.17;;;16.00;49.80;17.10;102184.00;;;;4988683;28;20188;-47
2022/03/21 05:11:46;;;;;;;8.27;5.03;;;16.00;49.80;17.10;102169.00;;;;4989143;28;20204;-47
2022/03/21 05:14:11;;;;;;;7.40;5.27;;;16.00;49.90;17.10;102172.00;;;;5004914;28;20173;-46
2022/03/21 05:16:38;;;;;;;7.93;4.93;;;16.00;49.90;17.10;102158.00;;;;4989530;28;20180;-45
2022/03/21 05:19:04;;;;;;;6.40;4.67;;;16.00;49.90;17.10;102173.00;;;;4989558;28;20223;-47
2022/03/21 05:21:30;;;;;;;8.30;4.87;;;16.00;49.90;17.10;102169.00;;;;4989024;28;20765;-46
2022/03/21 05:32:08;;;;;;;8.03;4.90;;;16.00;50.00;17.00;102170.00;;;;4988345;28;20238;-45
2022/03/21 05:37:18;;;;;;;5.77;4.57;;;15.90;50.10;17.00;102175.00;;;;4988701;28;20727;-47
2022/03/21 05:42:28;;;;;;;10.10;4.97;;;15.80;50.10;17.00;102175.00;;;;4987844;28;20248;-47
2022/03/21 05:44:54;;;;;;;10.57;5.03;;;15.80;50.20;17.00;102181.00;;;;4988565;28;20283;-47
2022/03/21 05:47:20;;;;;;;6.73;4.53;;;15.90;50.20;17.00;102185.00;;;;4988326;28;20199;-45
2022/03/21 05:49:45;;;;;;;6.73;4.73;;;15.90;50.20;17.00;102195.00;;;;4988136;28;20172;-45
2022/03/21 05:52:11;;;;;;;6.70;4.50;;;15.80;50.10;17.00;102190.00;;;;4988902;28;20207;-46
2022/03/21 05:54:37;;;;;;;5.43;4.80;;;15.80;50.20;17.00;102200.00;;;;4989775;28;20919;-46
2022/03/21 05:57:03;;;;;;;7.57;4.80;;;15.80;50.10;17.00;102187.00;;;;5004986;28;20195;-47
2022/03/21 06:02:13;;;;;;;5.10;4.50;;;15.80;50.00;16.90;102199.00;;;;4990741;28;20176;-48
2022/03/21 06:04:39;;;;;;;4.97;4.47;;;15.80;50.00;16.90;102199.00;;;;4990204;28;20176;-44
2022/03/21 06:07:04;;;;;;;5.80;4.50;;;15.70;50.00;16.90;102202.00;;;;4993426;28;20193;-48
2022/03/21 06:09:30;;;;;;;4.70;4.30;;;15.80;50.00;16.90;102203.00;;;;4988246;28;20189;-45
2022/03/21 06:11:56;;;;;;;4.67;4.27;;;15.80;50.20;16.90;102200.00;;;;4988553;28;20224;-45
2022/03/21 06:14:22;;;;;;;7.50;4.70;;;15.70;49.80;16.90;102211.00;;;;4988544;28;20584;-46
2022/03/21 06:16:48;;;;;;;5.10;4.60;;;15.80;49.90;16.90;102217.00;;;;4987999;28;20236;-45
2022/03/21 06:19:14;;;;;;;5.30;4.57;;;15.80;49.90;16.90;102218.00;;;;4987966;28;20397;-47
2022/03/21 06:21:39;;;;;;;4.57;4.17;;;15.70;49.70;16.90;102208.00;;;;4988342;28;20172;-45
2022/03/21 06:24:05;;;;;;;4.37;3.97;;;15.70;49.70;16.80;102218.00;;;;4987496;28;20259;-46
2022/03/21 06:26:31;;;;;;;5.00;4.50;;;15.70;49.80;16.80;102226.00;;;;4986687;28;20172;-46
2022/03/21 06:28:56;;;;;;;4.70;4.30;;;15.70;49.70;16.80;102222.00;;;;4987524;28;20172;-45
2022/03/21 06:31:22;;;;;;;4.70;4.30;;;15.70;49.80;16.80;102231.00;;;;4987901;28;20207;-45
2022/03/21 06:33:48;;;;;;;6.13;4.73;;;15.70;49.70;16.80;102239.00;;;;4988048;28;20726;-46
2022/03/21 06:36:14;;;;;;;4.87;4.47;;;15.70;49.80;16.80;102242.00;;;;4987530;28;20189;-46
2022/03/21 06:38:40;;;;;;;5.03;4.53;;;15.70;49.80;16.80;102244.00;;;;4987681;28;20203;-47
2022/03/21 06:41:07;;;;;;;4.80;4.40;;;15.60;49.70;16.80;102247.00;;;;4987866;28;20157;-47
2022/03/21 06:43:33;;;;;;;5.30;4.57;;;15.70;49.80;16.80;102248.00;;;;4987731;28;20664;-47
2022/03/21 06:45:58;;;;;;;5.40;4.40;;;15.70;49.70;16.80;102241.00;;;;4987754;28;20211;-46
2022/03/21 06:48:25;;;;;;;5.03;4.43;;;15.70;49.70;16.80;102250.00;;;;4987412;28;20959;-45
2022/03/21 06:50:55;;;;;;;5.23;4.73;;;15.60;49.70;16.70;102255.00;;;;4987381;28;20231;-46
2022/03/21 06:53:21;;;;;;;4.87;4.40;;;15.60;49.70;16.80;102251.00;;;;4987731;28;20165;-45
2022/03/21 06:55:46;;;;;;;4.97;4.57;;;15.60;49.70;16.70;102240.00;;;;4989185;28;20234;-46
2022/03/21 06:58:13;;;;;;;4.87;4.30;;;15.60;49.70;16.70;102248.00;;;;4987976;28;20211;-46
2022/03/21 07:00:43;;;;;;;5.17;4.67;;;15.60;49.70;16.70;102242.00;;;;4987119;28;20177;-46
2022/03/21 07:03:09;;;;;;;4.43;4.03;;;15.60;49.80;16.70;102251.00;;;;4988092;28;20818;-45
2022/03/21 07:05:37;;;;;;;5.13;4.63;;;15.60;49.70;16.70;102253.00;;;;4986570;28;20176;-45
2022/03/21 07:08:04;;;;;;;4.77;4.37;;;15.60;49.80;16.70;102247.00;;;;4985373;28;20246;-46
2022/03/21 07:10:32;;;;;;;4.70;4.30;;;15.60;49.70;16.70;102261.00;;;;4986249;28;20269;-46
2022/03/21 07:13:02;;;;;;;4.47;4.10;;;15.60;49.80;16.70;102268.00;;;;4987165;28;20195;-47
2022/03/21 07:15:28;;;;;;;4.70;4.30;;;15.60;49.80;16.70;102268.00;;;;4987352;28;20176;-45
2022/03/21 07:17:55;;;;;;;4.60;4.20;;;15.50;49.80;16.60;102274.00;;;;4986784;28;20211;-46
2022/03/21 07:20:21;;;;;;;4.90;4.50;;;15.50;49.70;16.60;102273.00;;;;4987310;28;20242;-46
2022/03/21 07:22:47;;;;;;;4.60;4.20;;;15.50;49.80;16.60;102271.00;;;;4987444;28;20181;-47
2022/03/21 07:25:13;;;;;;;4.73;4.33;;;15.50;49.80;16.60;102263.00;;;;4987225;28;20223;-46
2022/03/21 07:27:40;;;;;;;4.90;4.50;;;15.50;49.80;16.60;102264.00;;;;4987037;28;20226;-45
2022/03/21 07:30:06;;;;;;;5.00;4.60;;;15.50;49.80;16.50;102268.00;;;;4969267;28;20176;-46
2022/03/21 07:32:32;;;;;;;5.60;4.83;;;15.50;49.80;16.60;102272.00;;;;4984577;28;20208;-47
2022/03/21 07:34:58;;;;;;;5.00;4.60;;;15.50;50.10;16.60;102279.00;;;;4989058;28;20660;-47
2022/03/21 07:37:24;;;;;;;4.70;4.30;;;15.40;50.30;16.60;102285.00;;;;4988171;28;20196;-45
2022/03/21 07:39:49;;;;;;;5.63;4.50;;;15.40;50.30;16.60;102279.00;;;;4987637;28;20704;-45
2022/03/21 07:42:16;;;;;;;6.57;4.70;;;15.40;50.40;16.60;102284.00;;;;4986772;28;20180;-46
2022/03/21 07:47:27;;;;;;;7.03;4.80;;;15.40;50.60;16.50;102276.00;;;;4988738;28;20234;-47
2022/03/21 07:49:53;;;;;;;6.27;4.67;;;15.40;51.60;16.50;102279.00;;;;4988607;28;20180;-46
2022/03/21 07:52:20;;;;;;;5.50;4.93;;;15.40;51.20;16.50;102289.00;;;;4988368;28;20246;-48
2022/03/21 07:54:53;;;;;;;5.70;4.60;;;15.40;51.20;16.50;102266.00;;;;4988804;28;20176;-45
2022/03/21 07:57:23;;;;;;;9.73;4.77;;;15.30;51.30;16.50;102281.00;;;;4989496;28;20220;-45
2022/03/21 07:59:51;;;;;;;14.77;5.40;;;15.40;51.30;16.50;102276.00;;;;4917402;28;20188;-47
2022/03/21 08:02:19;;;;;;;8.90;5.10;;;15.40;51.50;16.50;102280.00;;;;4987973;28;20173;-45
2022/03/21 08:04:46;;;;;;;9.43;4.97;;;15.40;51.60;16.50;102288.00;;;;5001662;28;20180;-45
2022/03/21 08:07:13;;;;;;;7.13;4.80;;;15.40;51.40;16.50;102261.00;;;;5011451;28;20272;-46
2022/03/21 08:09:38;;;;;;;10.83;5.07;;;15.30;51.20;16.50;102286.00;;;;5004710;28;20188;-45
2022/03/21 08:12:04;;;;;;;7.30;4.70;;;15.30;51.20;16.50;102292.00;;;;4991717;28;20207;-47
2022/03/21 08:14:31;;;;;;;9.50;5.00;;;15.40;51.20;16.40;102293.00;;;;4991724;28;20251;-45
2022/03/21 08:16:56;;;;;;;13.77;5.50;;;15.40;51.20;16.50;102295.00;;;;5003889;28;20214;-45
2022/03/21 08:19:24;;;;;;;9.70;5.07;;;15.40;51.90;16.40;102298.00;;;;5011033;28;20633;-46
2022/03/21 08:21:52;;;;;;;8.33;4.97;;;15.30;51.40;16.40;102297.00;;;;5011198;28;20180;-46
2022/03/21 08:24:19;;;;;;;9.53;5.80;;;15.40;51.40;16.40;102295.00;;;;5011464;28;20184;-46
2022/03/21 08:26:45;;;;;;;15.97;7.17;;;15.30;51.70;16.40;102298.00;;;;5010782;28;20677;-45
2022/03/21 08:29:10;;;;;;;15.73;8.20;;;15.40;51.60;16.40;102297.00;;;;5010695;28;20179;-46
2022/03/21 08:31:36;;;;;;;16.70;8.57;;;15.30;51.60;16.40;102301.00;;;;5010610;28;20199;-47
2022/03/21 08:34:03;;;;;;;19.57;8.97;;;15.30;51.50;16.40;102284.00;;;;5011269;28;20239;-46
2022/03/21 08:36:29;;;;;;;15.83;8.60;;;15.30;51.50;16.30;102300.00;;;;5009577;28;20187;-45
2022/03/21 08:38:55;;;;;;;13.57;8.00;;;15.30;51.50;16.40;102299.00;;;;5009836;28;20167;-46
2022/03/21 08:41:21;;;;;;;13.40;8.30;;;15.30;51.60;16.30;102299.00;;;;5010441;28;20190;-47
2022/03/21 08:43:47;;;;;;;13.77;7.97;;;15.30;51.70;16.30;102296.00;;;;5010809;28;20657;-43
2022/03/21 08:46:13;;;;;;;13.67;7.53;;;15.30;51.70;16.30;102294.00;;;;5010330;28;20183;-44
2022/03/21 08:51:23;;;;;;;10.97;7.77;;;15.30;51.60;16.30;102291.00;;;;5010766;28;20253;-45
2022/03/21 08:53:50;;;;;;;14.10;8.00;;;15.30;51.60;16.30;102291.00;;;;5013040;28;20180;-45
2022/03/21 08:56:16;;;;;;;12.77;7.57;;;15.30;51.70;16.30;102290.00;;;;5011923;28;20214;-46
2022/03/21 08:58:42;;;;;;;10.80;7.43;;;15.30;51.60;16.30;102283.00;;;;5010937;28;20196;-45
2022/03/21 09:01:08;;;;;;;13.17;7.37;;;15.40;51.60;16.30;102283.00;;;;5012002;28;20600;-45
2022/03/21 09:03:33;;;;;;;11.67;7.50;;;15.30;51.60;16.30;102289.00;;;;5011736;28;20380;-46
2022/03/21 09:05:59;;;;;;;11.40;6.90;;;15.30;51.60;16.30;102291.00;;;;5011278;28;20186;-44
2022/03/21 09:08:25;;;;;;;12.03;7.47;;;15.30;51.70;16.30;102291.00;;;;5010025;28;20662;-45
2022/03/21 09:10:52;;;;;;;11.57;7.57;;;15.30;51.70;16.30;102296.00;;;;5010046;28;20199;-46
2022/03/21 09:13:18;;;;;;;10.93;6.80;;;15.30;51.80;16.30;102293.00;;;;5009647;28;20641;-44
2022/03/21 09:15:44;;;;;;;11.03;7.13;;;15.30;51.70;16.30;102292.00;;;;5010082;28;20196;-45
2022/03/21 09:18:09;;;;;;;11.90;7.27;;;15.30;51.80;16.30;102286.00;;;;5010329;28;20287;-45
2022/03/21 09:20:35;;;;;;;9.90;7.90;;;15.30;51.90;16.30;102285.00;;;;5010347;28;20172;-46
2022/03/21 09:23:01;;;;;;;10.27;7.23;;;15.30;51.80;16.30;102287.00;;;;5009397;28;20260;-44
2022/03/21 09:25:27;;;;;;;9.47;6.90;;;15.30;51.90;16.30;102285.00;;;;5011557;28;20187;-44
2022/03/21 09:27:52;;;;;;;8.53;6.97;;;15.30;52.00;16.20;102281.00;;;;5010138;28;20195;-46
2022/03/21 09:30:18;;;;;;;9.93;7.50;;;15.30;52.10;16.20;102277.00;;;;5009971;28;20168;-47
2022/03/21 09:32:44;;;;;;;10.20;6.90;;;15.30;52.10;16.30;102285.00;;;;5010213;28;20434;-45
2022/03/21 09:35:13;;;;;;;8.27;6.97;;;15.30;52.10;16.00;102246.00;;;;4894478;28;20664;-48
2022/03/21 09:37:39;;;;;;;10.23;7.23;;;15.30;51.50;16.20;102289.00;;;;4960001;28;20199;-45
2022/03/21 09:40:06;;;;;;;9.37;7.67;;;15.30;52.10;16.20;102285.00;;;;4989647;28;20172;-46
2022/03/21 09:42:36;;;;;;;8.20;6.87;;;15.30;52.20;16.20;102297.00;;;;5006119;28;20171;-46
2022/03/21 09:45:03;;;;;;;8.27;7.00;;;15.30;52.20;16.20;102276.00;;;;5008577;28;20362;-45
2022/03/21 09:50:13;;;;;;;9.40;6.87;;;15.30;52.30;16.30;102288.00;;;;5009515;28;20186;-46
2022/03/21 09:52:39;;;;;;;8.63;7.10;;;15.30;52.20;16.30;102278.00;;;;5009670;28;20895;-45
2022/03/21 09:55:07;;;;;;;8.93;6.90;;;15.30;52.20;16.30;102195.00;;;;4991528;28;20235;-44
2022/03/21 09:57:33;;;;;;;9.17;7.00;;;15.40;52.40;16.30;102288.00;;;;4985809;28;20586;-44
2022/03/21 09:59:59;;;;;;;8.07;6.60;;;15.40;52.50;16.30;102277.00;;;;4989728;28;20505;-47
2022/03/21 10:02:25;;;;;;;8.23;6.77;;;15.40;52.30;16.30;102284.00;;;;4989509;28;20216;-44
2022/03/21 10:04:51;;;;;;;7.77;6.50;;;15.40;52.50;16.30;102275.00;;;;4989459;28;20826;-44
2022/03/21 10:07:26;;;;;;;8.87;7.10;;;15.40;52.40;16.30;102271.00;;;;4987890;28;20192;-46
2022/03/21 10:10:09;;;;;;;8.20;6.33;;;15.50;52.60;16.30;102267.00;;;;4989236;28;20268;-46
2022/03/21 10:12:35;;;;;;;7.27;6.40;;;15.40;52.60;16.30;102266.00;;;;4989712;28;20200;-47
2022/03/21 10:15:08;;;;;;;7.73;6.60;;;15.50;52.60;16.30;102264.00;;;;4989355;28;20669;-46
2022/03/21 10:17:33;;;;;;;7.20;6.50;;;15.50;52.60;16.30;102265.00;;;;4987258;28;20219;-46
2022/03/21 10:19:59;;;;;;;7.43;6.67;;;15.50;52.70;16.30;102270.00;;;;4988138;28;20597;-46
2022/03/21 10:22:36;;;;;;;8.00;6.60;;;15.50;52.70;16.40;102266.00;;;;4989185;28;20181;-45
2022/03/21 10:25:06;;;;;;;7.00;6.30;;;15.50;52.80;16.40;102232.00;;;;4989254;28;20199;-46
2022/03/21 10:27:33;;;;;;;7.30;6.53;;;15.60;53.00;16.40;102265.00;;;;4987384;28;20240;-46
2022/03/21 10:30:07;;;;;;;6.60;5.97;;;15.60;53.00;16.40;102256.00;;;;4986950;28;20180;-45
2022/03/21 10:32:42;;;;;;;7.33;6.50;;;15.60;53.10;16.40;102271.00;;;;4988486;28;20722;-45
2022/03/21 10:35:21;;;;;;;6.60;6.00;;;15.60;53.10;16.40;102254.00;;;;4987292;28;20180;-45
2022/03/21 10:37:59;;;;;;;8.03;6.63;;;15.60;53.10;16.40;102273.00;;;;4988982;28;20255;-45
2022/03/21 10:40:41;;;;;;;7.70;6.40;;;15.60;53.20;16.40;102263.00;;;;4989133;28;20183;-44
2022/03/21 10:43:09;;;;;;;8.03;6.57;;;15.60;53.20;16.40;102264.00;;;;4988765;28;20171;-44
2022/03/21 10:45:35;;;;;;;7.50;6.37;;;15.60;53.20;16.40;102269.00;;;;4989280;28;20622;-46
2022/03/21 10:48:04;;;;;;;6.60;5.90;;;15.60;53.20;16.40;102255.00;;;;4989539;28;20283;-46
2022/03/21 10:50:35;;;;;;;6.90;6.30;;;15.60;53.30;16.50;102255.00;;;;4989131;28;20172;-45
2022/03/21 10:53:24;;;;;;;6.97;6.27;;;15.70;53.50;16.50;102247.00;;;;4989367;28;20624;-46
2022/03/21 10:56:08;;;;;;;6.93;6.27;;;15.70;53.60;16.40;102253.00;;;;4989100;28;20175;-46
2022/03/21 10:58:44;;;;;;;6.97;6.03;;;15.70;53.60;16.50;102249.00;;;;4989000;28;20223;-47
2022/03/21 11:01:14;;;;;;;6.63;6.03;;;15.70;53.60;16.50;102258.00;;;;4979515;28;20227;-48
2022/03/21 11:03:43;;;;;;;7.43;6.57;;;15.80;53.80;16.50;102256.00;;;;4970035;28;20181;-46
2022/03/21 11:06:10;;;;;;;7.20;6.40;;;15.70;53.60;16.60;102251.00;;;;4969887;28;20268;-44
2022/03/21 11:08:36;;;;;;;7.13;6.43;;;15.80;53.80;16.60;102250.00;;;;4968779;28;20188;-45
2022/03/21 11:11:03;;;;;;;6.87;6.17;;;15.80;53.80;16.60;102248.00;;;;4987162;28;20680;-47